»·PEaware :: N664NT KJFK-KEWR

N664NT :: KJFK-KEWR

FLIGHT INFORMATION

Flight Status: Arrived
Operator: Privately registered:
United States
More flights under this callsign
Pilot: Anonymous 328 (328)
Aircraft: Unknown
(GA7C)
More flights by this aircraft type
Origin: KJFK Kennedy Intl
United States
Destination: KEWR Newark Intl
United States
More flights between these airports :: More routes between these airports
Route: JFK5 V16 DIXIE V276 RBV V249 SBJ
File this flight plan on PilotEdge
Remarks:
Altitude:
(Current/Filed)
6,000ft
Speed:
(Current/Filed)
0kts
Departed: 01-Dec-22 05:22 AM
Arrived: 01-Dec-22 06:24 AM
Distance/Time
Traveled:
18nm/1:02
Distance/Time
To Go:
Arrived

Flight Plot

Page will automatically refresh every two minutes.

Flight plan parsing failed; only flown route is shown


Map Options




Map Legend


Flown Route
Filed Route
Departure Airport
Arrival Airport
Navaid (VOR, NDB)
Fix

Horizontal Profiles

Position Reports

Time Latitude Longitude Heading Altitude Ground
Speed
01-Dec-22 05:02 40.650547 -73.811073 230 20ft 0kts
01-Dec-22 05:03 40.650547 -73.811073 230 20ft 0kts
01-Dec-22 05:03 40.650547 -73.811073 230 20ft 0kts
01-Dec-22 05:05 40.650547 -73.811073 230 20ft 0kts
01-Dec-22 05:06 40.650547 -73.811073 230 20ft 0kts
01-Dec-22 05:07 40.650547 -73.811073 230 20ft 0kts
01-Dec-22 05:08 40.650547 -73.811073 230 20ft 0kts
01-Dec-22 05:09 40.650547 -73.811073 230 20ft 0kts
01-Dec-22 05:09 40.650547 -73.811073 230 20ft 0kts
01-Dec-22 05:15 40.650547 -73.811073 230 20ft 0kts
01-Dec-22 05:16 40.650547 -73.811073 230 20ft 0kts
01-Dec-22 05:17 40.649559 -73.811913 217 20ft 5kts
01-Dec-22 05:19 40.649773 -73.815392 211 21ft 3kts
01-Dec-22 05:19 40.649487 -73.815628 211 21ft 0kts
01-Dec-22 05:20 40.648804 -73.816170 210 21ft 9kts
01-Dec-22 05:21 40.641270 -73.800758 118 501ft 166kts
01-Dec-22 05:22 40.591312 -73.769165 166 4403ft 267kts
01-Dec-22 05:23 40.517509 -73.744354 166 5000ft 273kts
01-Dec-22 05:24 40.445854 -73.740997 214 5056ft 268kts
01-Dec-22 05:25 40.391537 -73.812607 227 6009ft 280kts
01-Dec-22 05:26 40.340015 -73.885834 226 6003ft 272kts
01-Dec-22 05:27 40.288258 -73.958443 226 6001ft 272kts
01-Dec-22 05:28 40.236546 -74.031059 226 6001ft 272kts
01-Dec-22 05:29 40.185043 -74.103462 227 6001ft 272kts
01-Dec-22 05:30 40.133427 -74.176102 227 6001ft 272kts
01-Dec-22 05:31 40.084751 -74.250999 252 6000ft 272kts
01-Dec-22 05:32 40.118538 -74.332626 328 6000ft 272kts
01-Dec-22 05:33 40.171783 -74.396988 289 6007ft 272kts
01-Dec-22 05:34 40.201126 -74.488060 301 6000ft 272kts
01-Dec-22 05:35 40.256882 -74.554726 320 6003ft 272kts
01-Dec-22 05:36 40.315208 -74.617638 326 6001ft 272kts
01-Dec-22 05:37 40.385784 -74.653000 341 5776ft 271kts
01-Dec-22 05:38 40.456200 -74.685356 331 5279ft 252kts
01-Dec-22 05:39 40.447781 -74.745476 182 4797ft 225kts
01-Dec-22 05:40 40.388409 -74.721214 160 4310ft 223kts
01-Dec-22 05:41 40.377113 -74.660812 29 4003ft 222kts
01-Dec-22 05:42 40.436035 -74.675346 340 4003ft 222kts
01-Dec-22 05:43 40.471069 -74.729691 249 4005ft 222kts
01-Dec-22 05:44 40.418835 -74.745323 160 4005ft 222kts
01-Dec-22 05:45 40.362843 -74.712921 125 3998ft 222kts
01-Dec-22 05:46 40.385597 -74.654640 358 4003ft 222kts
01-Dec-22 05:47 40.423923 -74.603561 77 4004ft 232kts
01-Dec-22 05:48 40.438263 -74.520447 77 3945ft 232kts
01-Dec-22 05:49 40.452553 -74.437798 77 3005ft 229kts
01-Dec-22 05:50 40.477242 -74.361298 59 3003ft 229kts
01-Dec-22 05:51 40.509541 -74.290192 57 2987ft 219kts
01-Dec-22 05:52 40.555576 -74.252625 26 2667ft 186kts
01-Dec-22 05:53 40.601688 -74.222778 25 1701ft 174kts
01-Dec-22 05:54 40.638744 -74.199120 25 943ft 129kts
01-Dec-22 05:55 40.671696 -74.178268 24 410ft 139kts
01-Dec-22 05:56 40.711090 -74.136765 47 2690ft 207kts
01-Dec-22 05:57 40.756710 -74.098221 336 3004ft 208kts
01-Dec-22 05:58 40.787136 -74.161957 290 3000ft 208kts
01-Dec-22 05:59 40.776402 -74.244186 247 2999ft 255kts
01-Dec-22 06:00 40.718941 -74.294777 206 3004ft 237kts
01-Dec-22 06:01 40.664227 -74.331573 207 3002ft 219kts
01-Dec-22 06:02 40.609875 -74.368179 207 3000ft 219kts
01-Dec-22 06:03 40.555305 -74.404076 193 2996ft 219kts
01-Dec-22 06:04 40.519676 -74.351700 106 3004ft 219kts
01-Dec-22 06:05 40.543007 -74.280853 56 3002ft 213kts
01-Dec-22 06:06 40.582062 -74.235695 27 2258ft 187kts
01-Dec-22 06:07 40.625332 -74.207680 25 1217ft 136kts
01-Dec-22 06:08 40.657909 -74.186874 25 533ft 128kts
01-Dec-22 06:09 40.691723 -74.165283 25 436ft 159kts
01-Dec-22 06:10 40.721149 -74.136047 43 2331ft 130kts
01-Dec-22 06:11 40.763130 -74.101295 341 2858ft 234kts
01-Dec-22 06:12 40.792873 -74.178551 265 3000ft 251kts
01-Dec-22 06:13 40.761318 -74.256508 207 3008ft 227kts
01-Dec-22 06:14 40.708717 -74.291298 207 3000ft 208kts
01-Dec-22 06:15 40.651543 -74.329582 207 3003ft 260kts
01-Dec-22 06:16 40.586845 -74.373047 207 3000ft 260kts
01-Dec-22 06:17 40.524563 -74.364189 113 3004ft 260kts
01-Dec-22 06:18 40.529251 -74.277870 39 2620ft 243kts
01-Dec-22 06:19 40.580097 -74.237053 27 2007ft 170kts
01-Dec-22 06:20 40.620815 -74.210129 25 1351ft 162kts
01-Dec-22 06:21 40.656612 -74.187477 25 593ft 130kts
01-Dec-22 06:22 40.688480 -74.167320 26 19ft 100kts
01-Dec-22 06:23 40.695728 -74.164307 298 19ft 7kts
01-Dec-22 06:24 40.696346 -74.167671 207 19ft 6kts
01-Dec-22 06:25 40.695957 -74.167931 206 19ft 0kts
01-Dec-22 06:26 40.690434 -74.171463 205 19ft 27kts
01-Dec-22 06:27 40.683929 -74.175606 205 19ft 24kts
01-Dec-22 06:28 40.678146 -74.179291 206 19ft 17kts
01-Dec-22 06:29 40.676205 -74.180450 166 19ft 1kts
01-Dec-22 06:30 40.676186 -74.180443 161 19ft 0kts
01-Dec-22 06:31 40.676186 -74.180443 161 19ft 0kts
01-Dec-22 06:32 40.676186 -74.180443 161 19ft 0kts

Navigation Log

Ident Type
Flight plan parsing failed, navigation log unavailable